sensor_id;sensor_type;location;lat;lon;timestamp;pressure;altitude;pressure_sealevel;temperature
67515;BMP280;60646;55.802;37.032;2024-03-08T00:00:28;99780.03;;;0.13
67515;BMP280;60646;55.802;37.032;2024-03-08T00:02:54;99808.19;;;0.32
67515;BMP280;60646;55.802;37.032;2024-03-08T00:05:20;99773.22;;;0.16
67515;BMP280;60646;55.802;37.032;2024-03-08T00:07:46;99784.34;;;0.23
67515;BMP280;60646;55.802;37.032;2024-03-08T00:10:12;99776.25;;;0.14
67515;BMP280;60646;55.802;37.032;2024-03-08T00:12:43;99809.22;;;0.38
67515;BMP280;60646;55.802;37.032;2024-03-08T00:15:10;99779.91;;;0.20
67515;BMP280;60646;55.802;37.032;2024-03-08T00:17:40;99794.25;;;0.35
67515;BMP280;60646;55.802;37.032;2024-03-08T00:20:06;99787.16;;;0.32
67515;BMP280;60646;55.802;37.032;2024-03-08T00:22:36;99772.31;;;0.26
67515;BMP280;60646;55.802;37.032;2024-03-08T00:25:03;99762.59;;;0.23
67515;BMP280;60646;55.802;37.032;2024-03-08T00:27:30;99788.41;;;0.47
67515;BMP280;60646;55.802;37.032;2024-03-08T00:30:00;99760.91;;;0.32
67515;BMP280;60646;55.802;37.032;2024-03-08T00:32:26;99747.88;;;0.29
67515;BMP280;60646;55.802;37.032;2024-03-08T00:34:55;99753.22;;;0.41
67515;BMP280;60646;55.802;37.032;2024-03-08T00:37:21;99782.25;;;0.58
67515;BMP280;60646;55.802;37.032;2024-03-08T00:39:56;99747.72;;;0.36
67515;BMP280;60646;55.802;37.032;2024-03-08T00:42:22;99753.97;;;0.42
67515;BMP280;60646;55.802;37.032;2024-03-08T00:44:48;99758.16;;;0.39
67515;BMP280;60646;55.802;37.032;2024-03-08T00:47:17;99755.53;;;0.39
67515;BMP280;60646;55.802;37.032;2024-03-08T00:49:42;99770.38;;;0.50
67515;BMP280;60646;55.802;37.032;2024-03-08T00:52:08;99745.97;;;0.29
67515;BMP280;60646;55.802;37.032;2024-03-08T00:54:35;99748.06;;;0.38
67515;BMP280;60646;55.802;37.032;2024-03-08T00:57:04;99727.25;;;0.27
67515;BMP280;60646;55.802;37.032;2024-03-08T00:59:30;99744.34;;;0.35
67515;BMP280;60646;55.802;37.032;2024-03-08T01:02:00;99734.63;;;0.32
67515;BMP280;60646;55.802;37.032;2024-03-08T01:04:26;99733.19;;;0.31
67515;BMP280;60646;55.802;37.032;2024-03-08T01:06:56;99734.34;;;0.30
67515;BMP280;60646;55.802;37.032;2024-03-08T01:09:23;99730.22;;;0.29
67515;BMP280;60646;55.802;37.032;2024-03-08T01:11:49;99745.81;;;0.36
67515;BMP280;60646;55.802;37.032;2024-03-08T01:14:16;99738.75;;;0.33
67515;BMP280;60646;55.802;37.032;2024-03-08T01:16:42;99721.66;;;0.25
67515;BMP280;60646;55.802;37.032;2024-03-08T01:19:08;99725.44;;;0.24
67515;BMP280;60646;55.802;37.032;2024-03-08T01:21:34;99707.28;;;0.10
67515;BMP280;60646;55.802;37.032;2024-03-08T01:24:00;99698.41;;;0.04
67515;BMP280;60646;55.802;37.032;2024-03-08T01:26:26;99717.69;;;0.17
67515;BMP280;60646;55.802;37.032;2024-03-08T01:28:51;99726.09;;;0.28
67515;BMP280;60646;55.802;37.032;2024-03-08T01:31:17;99721.66;;;0.25
67515;BMP280;60646;55.802;37.032;2024-03-08T01:33:43;99710.13;;;0.19
67515;BMP280;60646;55.802;37.032;2024-03-08T01:36:09;99734.91;;;0.38
67515;BMP280;60646;55.802;37.032;2024-03-08T01:38:35;99698.16;;;0.18
67515;BMP280;60646;55.802;37.032;2024-03-08T01:41:02;99700.44;;;0.16
67515;BMP280;60646;55.802;37.032;2024-03-08T01:43:28;99703.41;;;0.18
67515;BMP280;60646;55.802;37.032;2024-03-08T01:45:56;99715.53;;;0.32
67515;BMP280;60646;55.802;37.032;2024-03-08T01:48:24;99720.53;;;0.26
67515;BMP280;60646;55.802;37.032;2024-03-08T01:50:51;99722.75;;;0.28
67515;BMP280;60646;55.802;37.032;2024-03-08T01:53:18;99749.47;;;0.42
67515;BMP280;60646;55.802;37.032;2024-03-08T01:55:45;99738.47;;;0.31
67515;BMP280;60646;55.802;37.032;2024-03-08T01:58:12;99741.38;;;0.33
67515;BMP280;60646;55.802;37.032;2024-03-08T02:00:44;99750.00;;;0.34
67515;BMP280;60646;55.802;37.032;2024-03-08T02:03:12;99747.53;;;0.27
67515;BMP280;60646;55.802;37.032;2024-03-08T02:05:40;99721.56;;;0.09
67515;BMP280;60646;55.802;37.032;2024-03-08T02:08:06;99713.00;;;0.05
67515;BMP280;60646;55.802;37.032;2024-03-08T02:10:33;99707.97;;;-0.06
67515;BMP280;60646;55.802;37.032;2024-03-08T02:13:03;99726.13;;;0.05
67515;BMP280;60646;55.802;37.032;2024-03-08T02:15:54;99739.09;;;0.16
67515;BMP280;60646;55.802;37.032;2024-03-08T02:18:40;99734.31;;;0.11
67515;BMP280;60646;55.802;37.032;2024-03-08T02:21:07;99734.31;;;0.11
67515;BMP280;60646;55.802;37.032;2024-03-08T02:23:34;99737.66;;;0.11
67515;BMP280;60646;55.802;37.032;2024-03-08T02:26:01;99705.25;;;-0.02
67515;BMP280;60646;55.802;37.032;2024-03-08T02:28:26;99704.13;;;-0.01
67515;BMP280;60646;55.802;37.032;2024-03-08T02:30:53;99710.44;;;0.02
67515;BMP280;60646;55.802;37.032;2024-03-08T02:33:22;99702.28;;;-0.04
67515;BMP280;60646;55.802;37.032;2024-03-08T02:35:49;99683.38;;;-0.15
67515;BMP280;60646;55.802;37.032;2024-03-08T02:38:21;99716.66;;;0.11
67515;BMP280;60646;55.802;37.032;2024-03-08T02:40:48;99710.97;;;0.16
67515;BMP280;60646;55.802;37.032;2024-03-08T02:43:16;99714.72;;;0.15
67515;BMP280;60646;55.802;37.032;2024-03-08T02:45:42;99717.69;;;0.17
67515;BMP280;60646;55.802;37.032;2024-03-08T02:48:08;99694.63;;;0.05
67515;BMP280;60646;55.802;37.032;2024-03-08T02:50:34;99705.78;;;0.13
67515;BMP280;60646;55.802;37.032;2024-03-08T02:53:02;99719.44;;;0.24
67515;BMP280;60646;55.802;37.032;2024-03-08T02:55:28;99716.19;;;0.16
67515;BMP280;60646;55.802;37.032;2024-03-08T02:57:55;99688.63;;;0.05
67515;BMP280;60646;55.802;37.032;2024-03-08T03:00:22;99716.75;;;0.27
67515;BMP280;60646;55.802;37.032;2024-03-08T03:02:52;99689.94;;;0.16
67515;BMP280;60646;55.802;37.032;2024-03-08T03:05:21;99691.09;;;0.15
67515;BMP280;60646;55.802;37.032;2024-03-08T03:07:46;99688.47;;;0.15
67515;BMP280;60646;55.802;37.032;2024-03-08T03:10:14;99670.34;;;0.01
67515;BMP280;60646;55.802;37.032;2024-03-08T03:12:45;99683.66;;;0.10
67515;BMP280;60646;55.802;37.032;2024-03-08T03:15:12;99700.31;;;0.23
67515;BMP280;60646;55.802;37.032;2024-03-08T03:17:41;99707.88;;;0.21
67515;BMP280;60646;55.802;37.032;2024-03-08T03:20:07;99657.22;;;0.01
67515;BMP280;60646;55.802;37.032;2024-03-08T03:22:39;99678.63;;;0.19
67515;BMP280;60646;55.802;37.032;2024-03-08T03:25:07;99654.94;;;0.03
67515;BMP280;60646;55.802;37.032;2024-03-08T03:27:34;99644.50;;;-0.01
67515;BMP280;60646;55.802;37.032;2024-03-08T03:30:00;99638.63;;;-0.08
67515;BMP280;60646;55.802;37.032;2024-03-08T03:32:48;99619.34;;;-0.21
67515;BMP280;60646;55.802;37.032;2024-03-08T03:35:14;99648.34;;;-0.05
67515;BMP280;60646;55.802;37.032;2024-03-08T03:37:42;99640.28;;;-0.18
67515;BMP280;60646;55.802;37.032;2024-03-08T03:40:12;99666.91;;;0.04
67515;BMP280;60646;55.802;37.032;2024-03-08T03:42:38;99659.56;;;-0.05
67515;BMP280;60646;55.802;37.032;2024-03-08T03:45:08;99656.66;;;-0.10
67515;BMP280;60646;55.802;37.032;2024-03-08T03:47:35;99674.50;;;-0.02
67515;BMP280;60646;55.802;37.032;2024-03-08T03:50:01;99664.19;;;-0.12
67515;BMP280;60646;55.802;37.032;2024-03-08T03:52:30;99641.97;;;-0.27
67515;BMP280;60646;55.802;37.032;2024-03-08T03:54:57;99657.66;;;-0.24
67515;BMP280;60646;55.802;37.032;2024-03-08T03:57:23;99651.72;;;-0.28
67515;BMP280;60646;55.802;37.032;2024-03-08T03:59:49;99664.09;;;-0.28
67515;BMP280;60646;55.802;37.032;2024-03-08T04:02:17;99652.53;;;-0.34
67515;BMP280;60646;55.802;37.032;2024-03-08T04:04:43;99665.22;;;-0.29
67515;BMP280;60646;55.802;37.032;2024-03-08T04:07:11;99630.31;;;-0.50
67515;BMP280;60646;55.802;37.032;2024-03-08T04:09:37;99632.97;;;-0.53
67515;BMP280;60646;55.802;37.032;2024-03-08T04:12:03;99635.59;;;-0.53
67515;BMP280;60646;55.802;37.032;2024-03-08T04:14:29;99630.72;;;-0.51
67515;BMP280;60646;55.802;37.032;2024-03-08T04:16:54;99633.97;;;-0.44
67515;BMP280;60646;55.802;37.032;2024-03-08T04:19:20;99617.59;;;-0.51
67515;BMP280;60646;55.802;37.032;2024-03-08T04:21:46;99640.69;;;-0.43
67515;BMP280;60646;55.802;37.032;2024-03-08T04:24:12;99625.78;;;-0.49
67515;BMP280;60646;55.802;37.032;2024-03-08T04:26:38;99621.28;;;-0.49
67515;BMP280;60646;55.802;37.032;2024-03-08T04:29:04;99625.75;;;-0.46
67515;BMP280;60646;55.802;37.032;2024-03-08T04:31:29;99612.69;;;-0.49
67515;BMP280;60646;55.802;37.032;2024-03-08T04:33:57;99625.28;;;-0.40
67515;BMP280;60646;55.802;37.032;2024-03-08T04:36:23;99606.91;;;-0.40
67515;BMP280;60646;55.802;37.032;2024-03-08T04:38:50;99607.03;;;-0.48
67515;BMP280;60646;55.802;37.032;2024-03-08T04:41:17;99621.13;;;-0.38
67515;BMP280;60646;55.802;37.032;2024-03-08T04:43:44;99616.56;;;-0.34
67515;BMP280;60646;55.802;37.032;2024-03-08T04:46:10;99612.88;;;-0.36
67515;BMP280;60646;55.802;37.032;2024-03-08T04:48:36;99605.44;;;-0.41
67515;BMP280;60646;55.802;37.032;2024-03-08T04:51:03;99620.16;;;-0.24
67515;BMP280;60646;55.802;37.032;2024-03-08T04:53:29;99606.44;;;-0.32
67515;BMP280;60646;55.802;37.032;2024-03-08T04:55:55;99613.44;;;-0.25
67515;BMP280;60646;55.802;37.032;2024-03-08T04:58:23;99617.88;;;-0.22
67515;BMP280;60646;55.802;37.032;2024-03-08T05:00:49;99605.91;;;-0.23
67515;BMP280;60646;55.802;37.032;2024-03-08T05:03:16;99610.34;;;-0.20
67515;BMP280;60646;55.802;37.032;2024-03-08T05:05:42;99620.66;;;-0.10
67515;BMP280;60646;55.802;37.032;2024-03-08T05:08:08;99613.13;;;-0.08
67515;BMP280;60646;55.802;37.032;2024-03-08T05:10:34;99595.41;;;-0.23
67515;BMP280;60646;55.802;37.032;2024-03-08T05:13:00;99598.25;;;-0.14
67515;BMP280;60646;55.802;37.032;2024-03-08T05:15:25;99587.78;;;-0.18
67515;BMP280;60646;55.802;37.032;2024-03-08T05:17:51;99604.03;;;-0.03
67515;BMP280;60646;55.802;37.032;2024-03-08T05:20:17;99599.91;;;-0.04
67515;BMP280;60646;55.802;37.032;2024-03-08T05:22:44;99580.19;;;-0.12
67515;BMP280;60646;55.802;37.032;2024-03-08T05:25:10;99574.03;;;-0.02
67515;BMP280;60646;55.802;37.032;2024-03-08T05:27:37;99574.03;;;-0.02
67515;BMP280;60646;55.802;37.032;2024-03-08T05:30:04;99595.34;;;0.20
67515;BMP280;60646;55.802;37.032;2024-03-08T05:32:32;99570.50;;;0.05
67515;BMP280;60646;55.802;37.032;2024-03-08T05:34:58;99589.50;;;0.12
67515;BMP280;60646;55.802;37.032;2024-03-08T05:37:24;99565.66;;;0.03
67515;BMP280;60646;55.802;37.032;2024-03-08T05:39:50;99593.00;;;0.25
67515;BMP280;60646;55.802;37.032;2024-03-08T05:42:16;99577.78;;;0.17
67515;BMP280;60646;55.802;37.032;2024-03-08T05:44:42;99581.00;;;0.24
67515;BMP280;60646;55.802;37.032;2024-03-08T05:47:09;99552.75;;;0.12
67515;BMP280;60646;55.802;37.032;2024-03-08T05:49:35;99570.84;;;0.26
67515;BMP280;60646;55.802;37.032;2024-03-08T05:52:00;99571.97;;;0.25
67515;BMP280;60646;55.802;37.032;2024-03-08T05:54:26;99561.47;;;0.25
67515;BMP280;60646;55.802;37.032;2024-03-08T05:56:53;99573.88;;;0.41
67515;BMP280;60646;55.802;37.032;2024-03-08T05:59:20;99564.53;;;0.40
67515;BMP280;60646;55.802;37.032;2024-03-08T06:01:48;99593.84;;;0.55
67515;BMP280;60646;55.802;37.032;2024-03-08T06:04:14;99580.38;;;0.53
67515;BMP280;60646;55.802;37.032;2024-03-08T06:06:40;99568.75;;;0.54
67515;BMP280;60646;55.802;37.032;2024-03-08T06:09:06;99574.66;;;0.58
67515;BMP280;60646;55.802;37.032;2024-03-08T06:11:37;99566.84;;;0.54
67515;BMP280;60646;55.802;37.032;2024-03-08T06:14:03;99582.38;;;0.65
67515;BMP280;60646;55.802;37.032;2024-03-08T06:16:29;99590.44;;;0.74
67515;BMP280;60646;55.802;37.032;2024-03-08T06:18:58;99568.09;;;0.66
67515;BMP280;60646;55.802;37.032;2024-03-08T06:21:27;99577.63;;;0.76
67515;BMP280;60646;55.802;37.032;2024-03-08T06:23:54;99576.81;;;0.79
67515;BMP280;60646;55.802;37.032;2024-03-08T06:26:26;99575.84;;;0.89
67515;BMP280;60646;55.802;37.032;2024-03-08T06:28:54;99568.25;;;0.91
67515;BMP280;60646;55.802;37.032;2024-03-08T06:31:21;99590.38;;;1.10
67515;BMP280;60646;55.802;37.032;2024-03-08T06:33:47;99567.94;;;1.05
67515;BMP280;60646;55.802;37.032;2024-03-08T06:36:18;99564.06;;;1.10
67515;BMP280;60646;55.802;37.032;2024-03-08T06:38:48;99564.66;;;1.17
67515;BMP280;60646;55.802;37.032;2024-03-08T06:41:14;99550.44;;;1.15
67515;BMP280;60646;55.802;37.032;2024-03-08T06:43:43;99553.44;;;1.29
67515;BMP280;60646;55.802;37.032;2024-03-08T06:46:09;99564.94;;;1.35
67515;BMP280;60646;55.802;37.032;2024-03-08T06:48:39;99571.31;;;1.51
67515;BMP280;60646;55.802;37.032;2024-03-08T06:51:05;99573.53;;;1.52
67515;BMP280;60646;55.802;37.032;2024-03-08T06:53:31;99565.13;;;1.57
67515;BMP280;60646;55.802;37.032;2024-03-08T06:55:58;99561.66;;;1.60
67515;BMP280;60646;55.802;37.032;2024-03-08T06:58:30;99568.44;;;1.74
67515;BMP280;60646;55.802;37.032;2024-03-08T07:00:56;99587.97;;;1.89
67515;BMP280;60646;55.802;37.032;2024-03-08T07:03:26;99566.28;;;1.85
67515;BMP280;60646;55.802;37.032;2024-03-08T07:05:53;99576.91;;;1.94
67515;BMP280;60646;55.802;37.032;2024-03-08T07:08:19;99558.78;;;1.96
67515;BMP280;60646;55.802;37.032;2024-03-08T07:10:46;99583.09;;;2.16
67515;BMP280;60646;55.802;37.032;2024-03-08T07:13:12;99563.56;;;2.14
67515;BMP280;60646;55.802;37.032;2024-03-08T07:15:38;99581.50;;;2.32
67515;BMP280;60646;55.802;37.032;2024-03-08T07:18:05;99542.41;;;2.17
67515;BMP280;60646;55.802;37.032;2024-03-08T07:20:32;99575.81;;;2.46
67515;BMP280;60646;55.802;37.032;2024-03-08T07:22:58;99580.25;;;2.49
67515;BMP280;60646;55.802;37.032;2024-03-08T07:25:26;99576.03;;;2.51
67515;BMP280;60646;55.802;37.032;2024-03-08T07:27:55;99578.88;;;2.57
67515;BMP280;60646;55.802;37.032;2024-03-08T07:30:25;99567.81;;;2.49
67515;BMP280;60646;55.802;37.032;2024-03-08T07:33:10;99571.91;;;2.63
67515;BMP280;60646;55.802;37.032;2024-03-08T07:35:39;99571.31;;;2.59
67515;BMP280;60646;55.802;37.032;2024-03-08T07:38:09;99557.91;;;2.53
67515;BMP280;60646;55.802;37.032;2024-03-08T07:40:40;99579.47;;;2.73
67515;BMP280;60646;55.802;37.032;2024-03-08T07:43:10;99590.25;;;2.79
67515;BMP280;60646;55.802;37.032;2024-03-08T07:45:37;99572.94;;;2.78
67515;BMP280;60646;55.802;37.032;2024-03-08T07:48:04;99590.53;;;2.94
67515;BMP280;60646;55.802;37.032;2024-03-08T07:50:39;99585.25;;;2.94
67515;BMP280;60646;55.802;37.032;2024-03-08T07:53:07;99568.09;;;2.89
67515;BMP280;60646;55.802;37.032;2024-03-08T07:55:33;99570.16;;;2.94
67515;BMP280;60646;55.802;37.032;2024-03-08T07:58:03;99563.28;;;2.97
67515;BMP280;60646;55.802;37.032;2024-03-08T08:00:30;99550.78;;;2.88
67515;BMP280;60646;55.802;37.032;2024-03-08T08:02:57;99569.59;;;3.12
67515;BMP280;60646;55.802;37.032;2024-03-08T08:05:23;99545.78;;;3.03
67515;BMP280;60646;55.802;37.032;2024-03-08T08:07:49;99555.97;;;3.13
67515;BMP280;60646;55.802;37.032;2024-03-08T08:10:16;99554.28;;;3.19
67515;BMP280;60646;55.802;37.032;2024-03-08T08:12:48;99551.97;;;3.21
67515;BMP280;60646;55.802;37.032;2024-03-08T08:15:14;99573.50;;;3.42
67515;BMP280;60646;55.802;37.032;2024-03-08T08:17:44;99553.38;;;3.35
67515;BMP280;60646;55.802;37.032;2024-03-08T08:20:11;99562.63;;;3.40
67515;BMP280;60646;55.802;37.032;2024-03-08T08:22:46;99565.34;;;3.49
67515;BMP280;60646;55.802;37.032;2024-03-08T08:25:14;99547.63;;;3.37
67515;BMP280;60646;55.802;37.032;2024-03-08T08:27:46;99550.34;;;3.46
67515;BMP280;60646;55.802;37.032;2024-03-08T08:30:12;99527.72;;;3.36
67515;BMP280;60646;55.802;37.032;2024-03-08T08:32:39;99545.66;;;3.50
67515;BMP280;60646;55.802;37.032;2024-03-08T08:35:06;99553.34;;;3.57
67515;BMP280;60646;55.802;37.032;2024-03-08T08:37:33;99552.38;;;3.63
67515;BMP280;60646;55.802;37.032;2024-03-08T08:40:03;99558.09;;;3.62
67515;BMP280;60646;55.802;37.032;2024-03-08T08:42:35;99540.75;;;3.61
67515;BMP280;60646;55.802;37.032;2024-03-08T08:47:49;99550.78;;;3.66
67515;BMP280;60646;55.802;37.032;2024-03-08T08:50:16;99529.59;;;3.57
67515;BMP280;60646;55.802;37.032;2024-03-08T08:52:47;99558.00;;;3.74
67515;BMP280;60646;55.802;37.032;2024-03-08T08:55:13;99546.69;;;3.74
67515;BMP280;60646;55.802;37.032;2024-03-08T08:57:40;99529.47;;;3.60
67515;BMP280;60646;55.802;37.032;2024-03-08T09:00:07;99545.53;;;3.75
67515;BMP280;60646;55.802;37.032;2024-03-08T09:02:34;99550.81;;;3.75
67515;BMP280;60646;55.802;37.032;2024-03-08T09:05:00;99541.13;;;3.72
67515;BMP280;60646;55.802;37.032;2024-03-08T09:07:29;99534.19;;;3.65
67515;BMP280;60646;55.802;37.032;2024-03-08T09:09:55;99528.19;;;3.65
67515;BMP280;60646;55.802;37.032;2024-03-08T09:12:24;99552.16;;;3.80
67515;BMP280;60646;55.802;37.032;2024-03-08T09:15:09;99558.81;;;3.84
67515;BMP280;60646;55.802;37.032;2024-03-08T09:17:37;99528.50;;;3.67
67515;BMP280;60646;55.802;37.032;2024-03-08T09:20:06;99534.41;;;3.80
67515;BMP280;60646;55.802;37.032;2024-03-08T09:22:32;99541.47;;;3.83
67515;BMP280;60646;55.802;37.032;2024-03-08T09:24:58;99558.47;;;4.04
67515;BMP280;60646;55.802;37.032;2024-03-08T09:27:24;99525.06;;;3.88
67515;BMP280;60646;55.802;37.032;2024-03-08T09:29:50;99533.16;;;3.94
67515;BMP280;60646;55.802;37.032;2024-03-08T09:35:02;99558.97;;;4.20
67515;BMP280;60646;55.802;37.032;2024-03-08T09:37:29;99533.25;;;4.12
67515;BMP280;60646;55.802;37.032;2024-03-08T09:39:56;99521.03;;;4.05
67515;BMP280;60646;55.802;37.032;2024-03-08T09:42:23;99549.44;;;4.32
67515;BMP280;60646;55.802;37.032;2024-03-08T09:44:48;99541.69;;;4.38
67515;BMP280;60646;55.802;37.032;2024-03-08T09:47:15;99539.06;;;4.47
67515;BMP280;60646;55.802;37.032;2024-03-08T09:50:08;99547.34;;;4.67
67515;BMP280;60646;55.802;37.032;2024-03-08T09:53:03;99517.91;;;4.56
67515;BMP280;60646;55.802;37.032;2024-03-08T09:55:30;99522.94;;;4.63
67515;BMP280;60646;55.802;37.032;2024-03-08T09:58:00;99521.75;;;4.64
67515;BMP280;60646;55.802;37.032;2024-03-08T10:00:46;99536.91;;;4.82
67515;BMP280;60646;55.802;37.032;2024-03-08T10:03:12;99530.00;;;4.84
67515;BMP280;60646;55.802;37.032;2024-03-08T10:05:41;99517.34;;;4.79
67515;BMP280;60646;55.802;37.032;2024-03-08T10:08:07;99539.13;;;5.01
67515;BMP280;60646;55.802;37.032;2024-03-08T10:10:37;99529.72;;;5.00
67515;BMP280;60646;55.802;37.032;2024-03-08T10:13:09;99515.88;;;4.96
67515;BMP280;60646;55.802;37.032;2024-03-08T10:15:39;99522.94;;;5.08
67515;BMP280;60646;55.802;37.032;2024-03-08T10:18:06;99524.84;;;5.17
67515;BMP280;60646;55.802;37.032;2024-03-08T10:23:33;99537.00;;;5.42
67515;BMP280;60646;55.802;37.032;2024-03-08T10:26:17;99514.09;;;5.39
67515;BMP280;60646;55.802;37.032;2024-03-08T10:28:46;99509.66;;;5.36
67515;BMP280;60646;55.802;37.032;2024-03-08T10:31:15;99526.88;;;5.40
67515;BMP280;60646;55.802;37.032;2024-03-08T10:33:43;99517.56;;;5.45
67515;BMP280;60646;55.802;37.032;2024-03-08T10:36:11;99531.69;;;5.51
67515;BMP280;60646;55.802;37.032;2024-03-08T10:38:40;99507.59;;;5.49
67515;BMP280;60646;55.802;37.032;2024-03-08T10:41:09;99533.56;;;5.59
67515;BMP280;60646;55.802;37.032;2024-03-08T10:47:00;99539.91;;;5.71
67515;BMP280;60646;55.802;37.032;2024-03-08T10:49:32;99532.81;;;5.68
67515;BMP280;60646;55.802;37.032;2024-03-08T10:52:05;99523.56;;;5.63
67515;BMP280;60646;55.802;37.032;2024-03-08T10:54:36;99524.00;;;5.71
67515;BMP280;60646;55.802;37.032;2024-03-08T10:57:09;99525.44;;;5.72
67515;BMP280;60646;55.802;37.032;2024-03-08T10:59:37;99519.75;;;5.64
67515;BMP280;60646;55.802;37.032;2024-03-08T11:02:06;99513.13;;;5.60
67515;BMP280;60646;55.802;37.032;2024-03-08T11:04:32;99515.78;;;5.60
67515;BMP280;60646;55.802;37.032;2024-03-08T11:07:02;99526.31;;;5.78
67515;BMP280;60646;55.802;37.032;2024-03-08T11:14:48;99522.97;;;5.68
67515;BMP280;60646;55.802;37.032;2024-03-08T11:17:16;99529.56;;;5.73
67515;BMP280;60646;55.802;37.032;2024-03-08T11:19:48;99517.13;;;5.55
67515;BMP280;60646;55.802;37.032;2024-03-08T11:22:22;99524.59;;;5.66
67515;BMP280;60646;55.802;37.032;2024-03-08T11:24:53;99514.50;;;5.46
67515;BMP280;60646;55.802;37.032;2024-03-08T11:27:19;99532.09;;;5.58
67515;BMP280;60646;55.802;37.032;2024-03-08T11:30:07;99522.25;;;5.59
67515;BMP280;60646;55.802;37.032;2024-03-08T11:32:38;99506.38;;;5.50
67515;BMP280;60646;55.802;37.032;2024-03-08T11:35:10;99523.44;;;5.58
67515;BMP280;60646;55.802;37.032;2024-03-08T11:37:44;99521.50;;;5.58
67515;BMP280;60646;55.802;37.032;2024-03-08T11:40:14;99511.53;;;5.62
67515;BMP280;60646;55.802;37.032;2024-03-08T11:42:46;99515.91;;;5.65
67515;BMP280;60646;55.802;37.032;2024-03-08T11:45:14;99481.81;;;5.49
67515;BMP280;60646;55.802;37.032;2024-03-08T11:47:43;99492.22;;;5.62
67515;BMP280;60646;55.802;37.032;2024-03-08T11:50:14;99496.03;;;5.70
67515;BMP280;60646;55.802;37.032;2024-03-08T11:52:40;99497.16;;;5.78
67515;BMP280;60646;55.802;37.032;2024-03-08T11:55:08;99494.81;;;5.80
67515;BMP280;60646;55.802;37.032;2024-03-08T11:57:34;99497.31;;;5.84
67515;BMP280;60646;55.802;37.032;2024-03-08T12:00:02;99514.47;;;5.97
67515;BMP280;60646;55.802;37.032;2024-03-08T12:02:35;99513.28;;;5.98
67515;BMP280;60646;55.802;37.032;2024-03-08T12:05:06;99501.25;;;5.88
67515;BMP280;60646;55.802;37.032;2024-03-08T12:07:35;99515.03;;;6.01
67515;BMP280;60646;55.802;37.032;2024-03-08T12:10:20;99506.97;;;5.96
67515;BMP280;60646;55.802;37.032;2024-03-08T12:12:49;99516.09;;;5.95
67515;BMP280;60646;55.802;37.032;2024-03-08T12:15:20;99488.63;;;5.83
67515;BMP280;60646;55.802;37.032;2024-03-08T12:18:01;99500.19;;;5.95
67515;BMP280;60646;55.802;37.032;2024-03-08T12:20:30;99497.41;;;5.89
67515;BMP280;60646;55.802;37.032;2024-03-08T12:22:57;99503.28;;;5.93
67515;BMP280;60646;55.802;37.032;2024-03-08T12:25:30;99520.91;;;6.05
67515;BMP280;60646;55.802;37.032;2024-03-08T12:28:06;99492.75;;;5.84
67515;BMP280;60646;55.802;37.032;2024-03-08T12:30:32;99508.88;;;5.86
67515;BMP280;60646;55.802;37.032;2024-03-08T12:33:00;99515.50;;;5.91
67515;BMP280;60646;55.802;37.032;2024-03-08T12:35:27;99534.19;;;5.96
67515;BMP280;60646;55.802;37.032;2024-03-08T12:37:58;99533.63;;;5.92
67515;BMP280;60646;55.802;37.032;2024-03-08T12:40:29;99534.53;;;5.89
67515;BMP280;60646;55.802;37.032;2024-03-08T12:43:00;99529.22;;;5.89
67515;BMP280;60646;55.802;37.032;2024-03-08T12:45:27;99522.75;;;5.81
67515;BMP280;60646;55.802;37.032;2024-03-08T12:47:54;99518.81;;;5.77
67515;BMP280;60646;55.802;37.032;2024-03-08T12:50:21;99524.25;;;5.82
67515;BMP280;60646;55.802;37.032;2024-03-08T12:52:48;99513.22;;;5.75
67515;BMP280;60646;55.802;37.032;2024-03-08T12:55:18;99528.69;;;5.85
67515;BMP280;60646;55.802;37.032;2024-03-08T12:57:45;99531.03;;;5.83
67515;BMP280;60646;55.802;37.032;2024-03-08T13:00:16;99535.41;;;5.86
67515;BMP280;60646;55.802;37.032;2024-03-08T13:02:48;99515.56;;;5.72
67515;BMP280;60646;55.802;37.032;2024-03-08T13:05:16;99528.69;;;5.85
67515;BMP280;60646;55.802;37.032;2024-03-08T13:07:44;99504.88;;;5.67
67515;BMP280;60646;55.802;37.032;2024-03-08T13:10:13;99532.50;;;5.84
67515;BMP280;60646;55.802;37.032;2024-03-08T13:12:42;99522.13;;;5.86
67515;BMP280;60646;55.802;37.032;2024-03-08T13:15:09;99518.78;;;5.86
67515;BMP280;60646;55.802;37.032;2024-03-08T13:17:38;99506.53;;;5.88
67515;BMP280;60646;55.802;37.032;2024-03-08T13:20:07;99492.75;;;5.75
67515;BMP280;60646;55.802;37.032;2024-03-08T13:22:33;99498.06;;;5.75
67515;BMP280;60646;55.802;37.032;2024-03-08T13:24:59;99500.13;;;5.80
67515;BMP280;60646;55.802;37.032;2024-03-08T13:27:29;99512.03;;;5.85
67515;BMP280;60646;55.802;37.032;2024-03-08T13:29:55;99516.59;;;5.84
67515;BMP280;60646;55.802;37.032;2024-03-08T13:32:21;99534.38;;;5.93
67515;BMP280;60646;55.802;37.032;2024-03-08T13:34:51;99512.78;;;5.76
67515;BMP280;60646;55.802;37.032;2024-03-08T13:37:19;99530.09;;;5.86
67515;BMP280;60646;55.802;37.032;2024-03-08T13:39:45;99528.06;;;5.81
67515;BMP280;60646;55.802;37.032;2024-03-08T13:42:15;99535.41;;;5.86
67515;BMP280;60646;55.802;37.032;2024-03-08T13:44:45;99529.88;;;5.75
67515;BMP280;60646;55.802;37.032;2024-03-08T13:47:14;99535.00;;;5.79
67515;BMP280;60646;55.802;37.032;2024-03-08T13:49:41;99530.19;;;5.68
67515;BMP280;60646;55.802;37.032;2024-03-08T13:52:10;99520.47;;;5.65
67515;BMP280;60646;55.802;37.032;2024-03-08T13:54:36;99514.19;;;5.53
67515;BMP280;60646;55.802;37.032;2024-03-08T13:57:04;99537.13;;;5.65
67515;BMP280;60646;55.802;37.032;2024-03-08T13:59:31;99510.09;;;5.52
67515;BMP280;60646;55.802;37.032;2024-03-08T14:01:59;99532.56;;;5.66
67515;BMP280;60646;55.802;37.032;2024-03-08T14:04:30;99526.72;;;5.53
67515;BMP280;60646;55.802;37.032;2024-03-08T14:06:56;99491.44;;;5.38
67515;BMP280;60646;55.802;37.032;2024-03-08T14:09:25;99519.50;;;5.53
67515;BMP280;60646;55.802;37.032;2024-03-08T14:11:52;99525.50;;;5.54
67515;BMP280;60646;55.802;37.032;2024-03-08T14:14:21;99494.09;;;5.29
67515;BMP280;60646;55.802;37.032;2024-03-08T14:16:50;99517.59;;;5.36
67515;BMP280;60646;55.802;37.032;2024-03-08T14:19:21;99527.03;;;5.37
67515;BMP280;60646;55.802;37.032;2024-03-08T14:21:47;99495.44;;;5.15
67515;BMP280;60646;55.802;37.032;2024-03-08T14:24:17;99514.69;;;5.15
67515;BMP280;60646;55.802;37.032;2024-03-08T14:27:03;99525.28;;;5.15
67515;BMP280;60646;55.802;37.032;2024-03-08T14:29:30;99519.41;;;5.11